Time;durP1;ratioP1;P1;durP2;ratioP2;P2;SDS_P1;SDS_P2;PMS_P1;PMS_P2;Temp;Humidity;BMP_temperature;BMP_pressure;BME280_temperature;BME280_humidity;BME280_pressure;Samples;Min_cycle;Max_cycle;Signal;HPM_P1;HPM_P2
2022/03/14 00:02:05;;;;;;;;;20.75;19.50;;;;;8.46;86.92;101667.09;5015255;28;45471;-70
2022/03/14 00:04:34;;;;;;;;;6.00;4.00;;;;;8.49;86.57;101680.13;5014817;28;45756;-70
2022/03/14 00:07:00;;;;;;;;;7.00;5.00;;;;;8.53;86.34;101685.28;5015857;28;45398;-70
2022/03/14 00:09:25;;;;;;;;;9.50;8.00;;;;;8.51;86.24;101689.69;5015413;28;45537;-70
2022/03/14 00:11:54;;;;;;;;;10.25;6.50;;;;;8.53;86.41;101698.38;5013939;28;45514;-70
2022/03/14 00:14:19;;;;;;;;;6.50;5.00;;;;;8.57;86.38;101696.56;5010411;28;46270;-70
2022/03/14 00:16:46;;;;;;;;;6.00;3.50;;;;;8.58;86.16;101701.78;5013523;28;45506;-70
2022/03/14 00:19:12;;;;;;;;;2.25;0.00;;;;;8.58;86.00;101709.63;5014996;28;45455;-70
2022/03/14 00:21:41;;;;;;;;;7.75;5.50;;;;;8.58;86.06;101714.00;5011403;28;45523;-70
2022/03/14 00:24:08;;;;;;;;;6.00;6.00;;;;;8.60;85.81;101717.44;5010598;28;47076;-70
2022/03/14 00:26:35;;;;;;;;;7.50;5.00;;;;;8.64;86.07;101732.22;5010549;28;45447;-70
2022/03/14 00:29:00;;;;;;;;;6.50;5.00;;;;;8.60;85.47;101725.31;5010708;28;45888;-70
2022/03/14 00:31:26;;;;;;;;;5.50;5.50;;;;;8.64;85.37;101734.84;5015149;28;45317;-70
2022/03/14 00:33:51;;;;;;;;;3.00;3.00;;;;;8.66;85.61;101733.06;5011096;28;46278;-70
2022/03/14 00:36:18;;;;;;;;;6.50;5.25;;;;;8.67;85.29;101749.66;5009986;28;45390;-70
2022/03/14 00:38:43;;;;;;;;;5.25;5.25;;;;;8.69;85.56;101753.97;5010393;28;45464;-70
2022/03/14 00:41:09;;;;;;;;;6.25;5.75;;;;;8.73;85.49;101766.13;5009929;28;45441;-70
2022/03/14 00:43:35;;;;;;;;;7.50;5.50;;;;;8.75;85.46;101760.84;5013451;28;49232;-70
2022/03/14 00:46:01;;;;;;;;;6.00;4.50;;;;;8.75;85.16;101768.72;5011972;28;45345;-70
2022/03/14 00:48:27;;;;;;;;;5.50;5.50;;;;;8.76;85.34;101768.69;5009718;28;45364;-70
2022/03/14 00:50:53;;;;;;;;;5.25;5.00;;;;;8.79;85.07;101773.00;5006518;28;45490;-69
2022/03/14 00:53:19;;;;;;;;;5.00;3.00;;;;;8.79;84.84;101771.25;5012831;28;45502;-70
2022/03/14 00:55:45;;;;;;;;;3.00;3.00;;;;;8.78;84.53;101774.78;5020463;28;45502;-70
2022/03/14 00:58:10;;;;;;;;;3.00;3.00;;;;;8.77;84.45;101785.25;5012780;28;45542;-70
2022/03/14 01:00:36;;;;;;;;;5.50;3.00;;;;;8.76;84.82;101786.16;5010804;28;45400;-70
2022/03/14 01:03:02;;;;;;;;;4.50;3.00;;;;;8.76;84.74;101797.50;5009606;28;45598;-70
2022/03/14 01:05:28;;;;;;;;;3.75;3.00;;;;;8.77;84.72;101809.75;5009967;28;45572;-70
2022/03/14 01:07:53;;;;;;;;;6.00;4.75;;;;;8.79;84.81;101810.56;5011315;28;45324;-70
2022/03/14 01:10:20;;;;;;;;;3.00;3.00;;;;;8.81;84.69;101814.00;5013618;28;45665;-70
2022/03/14 01:12:45;;;;;;;;;7.25;4.00;;;;;8.80;84.82;101806.19;5010407;28;46986;-70
2022/03/14 01:15:11;;;;;;;;;6.00;2.75;;;;;8.82;84.20;101817.50;5009880;28;45303;-70
2022/03/14 01:17:36;;;;;;;;;2.50;2.50;;;;;8.80;84.50;101825.41;5008783;28;45707;-70
2022/03/14 01:20:06;;;;;;;;;5.00;3.00;;;;;8.80;84.17;101828.00;5010235;28;45463;-70
2022/03/14 01:22:32;;;;;;;;;8.00;5.75;;;;;8.80;84.54;101833.25;5013698;28;45357;-70
2022/03/14 01:24:57;;;;;;;;;6.00;4.75;;;;;8.78;84.11;101840.28;5011067;28;45384;-70
2022/03/14 01:27:22;;;;;;;;;8.00;5.00;;;;;8.76;83.98;101839.44;5010101;28;45521;-70
2022/03/14 01:29:48;;;;;;;;;5.00;2.75;;;;;8.72;83.75;101845.66;5009767;28;47444;-70
2022/03/14 01:32:14;;;;;;;;;5.25;2.75;;;;;8.64;83.62;101844.91;5009182;28;46079;-70
2022/03/14 01:34:39;;;;;;;;;5.25;5.00;;;;;8.53;83.85;101850.34;5012348;28;46038;-70
2022/03/14 01:37:05;;;;;;;;;2.33;2.33;;;;;8.47;83.84;101854.81;5011422;28;52294;-69
2022/03/14 01:39:31;;;;;;;;;7.00;4.50;;;;;8.41;84.21;101857.53;5010148;28;45290;-70
2022/03/14 01:41:57;;;;;;;;;6.50;5.00;;;;;8.41;84.29;101854.91;5005234;28;45377;-70
2022/03/14 01:44:23;;;;;;;;;4.25;2.25;;;;;8.44;84.83;101860.94;5009443;28;45473;-70
2022/03/14 01:46:48;;;;;;;;;10.75;3.50;;;;;8.44;84.49;101857.47;5013508;28;45390;-70
2022/03/14 01:49:14;;;;;;;;;2.50;2.50;;;;;8.43;84.77;101866.22;5014421;28;45404;-70
2022/03/14 01:51:41;;;;;;;;;2.25;2.25;;;;;8.43;84.49;101866.22;5010073;28;45375;-70
2022/03/14 01:54:10;;;;;;;;;5.00;5.00;;;;;8.40;84.21;101858.41;5011719;28;45404;-69
2022/03/14 01:56:38;;;;;;;;;5.00;3.00;;;;;8.39;84.51;101862.78;5013370;28;45550;-70
2022/03/14 01:59:04;;;;;;;;;6.25;3.00;;;;;8.36;84.76;101874.19;5012909;28;45515;-70
2022/03/14 02:01:29;;;;;;;;;1.25;1.25;;;;;8.36;84.88;101870.72;5016355;28;47083;-70
2022/03/14 02:03:55;;;;;;;;;5.00;2.50;;;;;8.36;84.70;101882.03;5014156;28;45361;-70
2022/03/14 02:06:20;;;;;;;;;4.00;4.00;;;;;8.38;84.72;101876.78;5012976;28;45351;-70
2022/03/14 02:08:46;;;;;;;;;6.00;3.00;;;;;8.39;84.16;101883.72;5012683;28;45417;-69
2022/03/14 02:11:12;;;;;;;;;5.00;2.25;;;;;8.36;84.56;101883.81;5014740;28;55754;-69
2022/03/14 02:13:37;;;;;;;;;7.00;2.00;;;;;8.30;84.01;101881.22;5015475;28;45319;-70
2022/03/14 02:16:03;;;;;;;;;5.50;3.00;;;;;8.25;84.39;101876.06;5013540;28;52380;-70
2022/03/14 02:18:28;;;;;;;;;3.00;2.25;;;;;8.15;84.26;101869.25;5017622;28;45847;-70
2022/03/14 02:20:54;;;;;;;;;7.75;2.00;;;;;8.11;84.22;101865.78;5012325;28;45916;-70
2022/03/14 02:23:20;;;;;;;;;6.25;6.25;;;;;8.07;84.79;101871.09;5012405;28;45452;-70
2022/03/14 02:25:50;;;;;;;;;6.25;2.50;;;;;8.03;84.75;101875.50;5014571;28;45467;-70
2022/03/14 02:28:18;;;;;;;;;6.00;3.00;;;;;7.99;84.93;101886.94;5015563;28;45380;-70
2022/03/14 02:30:43;;;;;;;;;9.75;2.75;;;;;7.94;84.90;101883.50;5012663;28;46338;-70
2022/03/14 02:33:11;;;;;;;;;10.00;4.00;;;;;7.90;85.16;101883.56;5012434;28;45311;-70
2022/03/14 02:35:39;;;;;;;;;5.50;4.00;;;;;7.86;84.71;101885.34;5012660;28;45428;-70
2022/03/14 02:38:06;;;;;;;;;6.00;3.00;;;;;7.84;84.70;101889.75;5011452;28;45565;-70
2022/03/14 02:40:31;;;;;;;;;6.25;3.00;;;;;7.81;84.99;101892.38;5016158;28;45972;-70
2022/03/14 02:42:56;;;;;;;;;3.00;3.00;;;;;7.77;85.12;101898.53;5013231;28;45353;-70
2022/03/14 02:45:22;;;;;;;;;5.75;3.00;;;;;7.73;85.01;101902.97;5011894;28;45467;-69
2022/03/14 02:47:48;;;;;;;;;5.00;3.00;;;;;7.70;85.02;101895.16;5012508;28;45399;-70
2022/03/14 02:50:13;;;;;;;;;4.50;3.00;;;;;7.65;85.43;101896.94;5012002;28;45403;-69
2022/03/14 02:52:38;;;;;;;;;5.00;2.25;;;;;7.63;85.74;101913.56;5014883;28;45322;-69
2022/03/14 02:55:06;;;;;;;;;2.50;1.75;;;;;7.59;85.62;101913.59;5014163;28;45230;-70
2022/03/14 02:57:31;;;;;;;;;3.00;2.00;;;;;7.56;85.77;101931.94;5012367;28;45471;-71
2022/03/14 02:59:57;;;;;;;;;3.00;2.25;;;;;7.55;85.71;101926.72;5011571;28;46309;-70
2022/03/14 03:02:25;;;;;;;;;4.50;2.25;;;;;7.52;86.09;101935.47;5011951;28;45369;-69
2022/03/14 03:04:51;;;;;;;;;3.50;3.00;;;;;7.51;85.94;101938.97;5011809;28;45439;-69
2022/03/14 03:07:19;;;;;;;;;5.25;3.00;;;;;7.48;86.03;101941.63;5014605;28;45511;-70
2022/03/14 03:09:45;;;;;;;;;6.50;3.50;;;;;7.48;85.91;101954.69;5012524;28;46971;-70
2022/03/14 03:12:13;;;;;;;;;2.50;1.25;;;;;7.46;86.29;101953.84;5011369;28;45229;-70
2022/03/14 03:14:38;;;;;;;;;2.75;1.25;;;;;7.45;85.84;101965.19;5011481;28;45373;-70
2022/03/14 03:17:04;;;;;;;;;4.75;3.50;;;;;7.44;85.93;101973.91;5011577;28;45257;-70
2022/03/14 03:19:29;;;;;;;;;4.00;3.00;;;;;7.45;86.14;101980.00;4998054;28;46847;-70
2022/03/14 03:21:55;;;;;;;;;2.75;2.00;;;;;7.46;86.46;101976.50;5016684;28;45464;-70
2022/03/14 03:24:20;;;;;;;;;7.25;2.25;;;;;7.49;86.20;101989.56;5012029;28;45378;-70
2022/03/14 03:26:45;;;;;;;;;3.00;1.33;;;;;7.48;86.44;101991.31;5010903;28;54805;-70
2022/03/14 03:29:11;;;;;;;;;5.00;3.00;;;;;7.50;86.48;101993.91;5010622;28;62410;-69
2022/03/14 03:31:36;;;;;;;;;2.50;1.00;;;;;7.49;86.16;102000.91;5014429;28;45387;-70
2022/03/14 03:34:01;;;;;;;;;7.00;3.00;;;;;7.48;86.04;102003.53;5013343;28;45294;-69
2022/03/14 03:36:27;;;;;;;;;7.00;3.00;;;;;7.46;86.05;102000.06;5011425;28;45527;-69
2022/03/14 03:38:52;;;;;;;;;3.50;3.00;;;;;7.43;86.33;101997.47;5015212;28;45514;-70
2022/03/14 03:41:18;;;;;;;;;2.00;2.00;;;;;7.41;85.78;102012.31;5010706;28;45416;-70
2022/03/14 03:43:43;;;;;;;;;5.00;2.00;;;;;7.37;85.88;102013.25;5012955;28;45570;-70
2022/03/14 03:46:08;;;;;;;;;2.00;2.00;;;;;7.33;86.08;102015.00;5013732;28;45284;-69
2022/03/14 03:48:34;;;;;;;;;3.50;2.00;;;;;7.30;86.02;102020.25;5011171;28;55627;-69
2022/03/14 03:51:00;;;;;;;;;2.00;2.00;;;;;7.27;85.77;102028.13;5011564;28;45461;-70
2022/03/14 03:53:25;;;;;;;;;2.00;2.00;;;;;7.24;85.98;102023.78;5011191;28;45463;-70
2022/03/14 03:55:51;;;;;;;;;2.50;1.00;;;;;7.22;86.01;102033.41;5011882;28;45605;-70
2022/03/14 03:58:16;;;;;;;;;5.00;2.00;;;;;7.20;86.32;102031.66;5014446;28;46159;-69
2022/03/14 04:00:41;;;;;;;;;5.00;2.00;;;;;7.17;86.35;102044.78;5011534;28;45394;-70
2022/03/14 04:03:08;;;;;;;;;4.50;2.00;;;;;7.14;86.02;102044.78;5011407;28;45273;-70
2022/03/14 04:05:35;;;;;;;;;6.50;3.00;;;;;7.13;86.27;102048.28;5011020;28;45502;-70
2022/03/14 04:08:02;;;;;;;;;2.50;2.50;;;;;7.10;86.28;102051.81;5014414;28;49673;-69
2022/03/14 04:10:29;;;;;;;;;3.50;2.50;;;;;7.08;86.23;102066.63;5014882;28;45609;-70
2022/03/14 04:13:01;;;;;;;;;2.00;2.00;;;;;7.04;86.26;102071.00;5011741;28;45458;-70
2022/03/14 04:15:27;;;;;;;;;1.75;1.75;;;;;7.00;86.33;102071.06;5010467;28;45370;-70
2022/03/14 04:18:02;;;;;;;;;4.00;2.50;;;;;6.97;86.00;102074.53;5010597;28;46226;-70
2022/03/14 04:20:28;;;;;;;;;7.25;4.00;;;;;6.93;86.46;102072.81;5010810;28;45388;-69
2022/03/14 04:22:53;;;;;;;;;3.25;2.00;;;;;6.91;86.33;102069.34;5011897;28;45536;-70
2022/03/14 04:25:18;;;;;;;;;3.50;3.00;;;;;6.89;86.49;102078.06;5014034;28;45436;-69
2022/03/14 04:27:44;;;;;;;;;2.75;2.75;;;;;6.87;86.39;102087.66;5010989;28;47122;-69
2022/03/14 04:30:10;;;;;;;;;6.00;5.00;;;;;6.86;86.34;102091.16;5010257;28;45409;-70
2022/03/14 04:32:35;;;;;;;;;6.25;2.25;;;;;6.85;86.56;102090.31;5010445;28;45403;-69
2022/03/14 04:35:01;;;;;;;;;3.00;2.00;;;;;6.83;86.70;102097.25;5010514;28;45408;-70
2022/03/14 04:37:26;;;;;;;;;5.00;5.00;;;;;6.84;86.60;102098.13;5014603;28;45927;-70
2022/03/14 04:39:53;;;;;;;;;3.00;2.00;;;;;6.83;86.55;102107.72;5014452;28;45503;-70
2022/03/14 04:42:20;;;;;;;;;6.25;5.00;;;;;6.86;86.78;102118.16;5010386;28;45499;-70
2022/03/14 04:44:49;;;;;;;;;3.00;2.50;;;;;6.85;86.63;102110.34;5010010;28;45525;-69
2022/03/14 04:47:14;;;;;;;;;8.50;4.50;;;;;6.85;86.80;102112.97;5010156;28;45386;-70
2022/03/14 04:49:40;;;;;;;;;3.50;3.50;;;;;6.85;86.39;102119.06;5011055;28;45550;-70
2022/03/14 04:52:06;;;;;;;;;4.75;4.00;;;;;6.83;86.38;102112.06;5011692;28;47694;-69
2022/03/14 04:54:31;;;;;;;;;9.25;2.50;;;;;6.81;86.59;102117.31;5014461;28;45490;-69
2022/03/14 04:56:57;;;;;;;;;3.00;3.00;;;;;6.83;86.37;102128.63;5013678;28;46007;-70
2022/03/14 04:59:22;;;;;;;;;3.50;3.00;;;;;6.80;86.60;102124.28;5011765;28;45835;-70
2022/03/14 05:01:47;;;;;;;;;3.00;3.00;;;;;6.78;86.51;102122.56;5011588;28;45239;-69
2022/03/14 05:04:13;;;;;;;;;8.00;5.25;;;;;6.78;86.52;102130.38;5012872;28;46821;-69
2022/03/14 05:06:38;;;;;;;;;2.75;2.00;;;;;6.73;86.22;102132.16;5013728;28;45400;-70
2022/03/14 05:09:05;;;;;;;;;1.00;1.00;;;;;6.70;86.46;102137.41;5010751;28;45461;-70
2022/03/14 05:11:31;;;;;;;;;3.25;3.25;;;;;6.67;86.57;102148.72;5009845;28;45526;-70
2022/03/14 05:13:57;;;;;;;;;8.00;4.25;;;;;6.63;86.27;102147.03;5009689;28;45590;-70
2022/03/14 05:16:22;;;;;;;;;10.75;4.50;;;;;6.62;86.24;102144.41;5014065;28;46271;-69
2022/03/14 05:18:47;;;;;;;;;8.25;2.75;;;;;6.59;86.53;102152.25;5009011;28;57187;-70
2022/03/14 05:21:13;;;;;;;;;6.00;2.75;;;;;6.56;86.18;102150.50;5011904;28;45514;-70
2022/03/14 05:23:40;;;;;;;;;5.50;5.00;;;;;6.53;86.59;102161.00;5009078;28;45500;-70
2022/03/14 05:26:05;;;;;;;;;7.00;5.00;;;;;6.50;86.29;102161.84;5009658;28;47130;-70
2022/03/14 05:28:31;;;;;;;;;6.50;2.50;;;;;6.49;86.27;102173.19;5014768;28;45480;-70
2022/03/14 05:30:57;;;;;;;;;3.50;2.50;;;;;6.44;86.45;102167.09;5014560;28;45464;-70
2022/03/14 05:33:22;;;;;;;;;6.00;3.25;;;;;6.42;86.30;102167.97;5017657;28;45732;-70
2022/03/14 05:35:49;;;;;;;;;5.00;3.25;;;;;6.41;86.69;102174.06;5013055;28;46884;-70
2022/03/14 05:38:15;;;;;;;;;7.75;4.00;;;;;6.38;86.93;102171.47;5011683;28;45396;-70
2022/03/14 05:40:40;;;;;;;;;6.50;5.00;;;;;6.36;86.51;102174.06;5015827;28;45446;-70
2022/03/14 05:43:07;;;;;;;;;7.50;5.00;;;;;6.33;86.66;102181.94;5015294;28;45511;-69
2022/03/14 05:45:32;;;;;;;;;5.00;4.50;;;;;6.31;86.65;102183.66;5013221;28;46162;-70
2022/03/14 05:47:58;;;;;;;;;6.00;5.75;;;;;6.30;86.63;102186.28;5012785;28;45543;-70
2022/03/14 05:50:24;;;;;;;;;9.50;5.75;;;;;6.28;86.85;102191.53;5013571;28;45426;-70
2022/03/14 05:52:50;;;;;;;;;5.00;3.75;;;;;6.27;86.54;102198.47;5014034;28;45496;-68
2022/03/14 05:55:16;;;;;;;;;4.75;3.25;;;;;6.26;86.74;102193.25;5016154;28;45356;-70
2022/03/14 05:57:41;;;;;;;;;7.00;4.75;;;;;6.26;86.87;102204.59;5013506;28;45565;-68
2022/03/14 06:00:08;;;;;;;;;5.67;4.00;;;;;6.25;86.88;102201.94;5012660;28;45836;-68
2022/03/14 06:02:35;;;;;;;;;7.25;5.00;;;;;6.21;86.94;102200.22;5012742;28;45495;-68
2022/03/14 06:05:00;;;;;;;;;7.00;7.00;;;;;6.23;87.11;102211.53;5013003;28;47153;-69
2022/03/14 06:07:25;;;;;;;;;4.00;3.50;;;;;6.22;86.81;102208.06;5015875;28;45371;-68
2022/03/14 06:09:51;;;;;;;;;5.67;3.67;;;;;6.19;86.95;102208.06;5018724;28;50378;-68
2022/03/14 06:12:27;;;;;;;;;6.25;4.00;;;;;6.19;86.74;102215.03;5024539;28;45506;-68
2022/03/14 06:14:53;;;;;;;;;5.25;4.00;;;;;6.18;86.84;102221.97;5008502;28;46341;-69
2022/03/14 06:17:19;;;;;;;;;4.00;4.00;;;;;6.17;87.05;102219.38;5016984;28;46115;-69
2022/03/14 06:19:44;;;;;;;;;6.25;5.00;;;;;6.17;86.86;102224.59;5014455;28;45358;-69
2022/03/14 06:22:10;;;;;;;;;5.25;2.75;;;;;6.18;86.89;102221.13;5015103;28;45339;-69
2022/03/14 06:24:35;;;;;;;;;9.00;4.00;;;;;6.18;86.83;102219.38;5012838;28;46171;-70
2022/03/14 06:27:01;;;;;;;;;4.75;2.25;;;;;6.20;87.18;102227.19;5012654;28;45479;-69
2022/03/14 06:29:26;;;;;;;;;5.50;5.00;;;;;6.22;86.93;102225.47;5012423;28;45409;-69
2022/03/14 06:31:51;;;;;;;;;6.75;2.00;;;;;6.27;87.07;102234.16;5013470;28;48832;-69
2022/03/14 06:34:16;;;;;;;;;7.67;4.67;;;;;6.32;87.12;102237.66;5015391;28;50572;-69
2022/03/14 06:36:44;;;;;;;;;3.75;3.75;;;;;6.37;86.88;102245.44;5011930;28;45289;-69
2022/03/14 06:39:09;;;;;;;;;9.25;6.00;;;;;6.42;86.75;102256.75;5012097;28;45467;-69
2022/03/14 06:41:38;;;;;;;;;10.25;5.00;;;;;6.46;87.02;102259.34;5012336;28;45419;-69
2022/03/14 06:44:03;;;;;;;;;8.50;5.00;;;;;6.54;86.97;102280.25;5011833;28;45521;-69
2022/03/14 06:46:28;;;;;;;;;8.50;6.50;;;;;6.59;86.65;102288.09;5016882;28;45514;-69
2022/03/14 06:48:54;;;;;;;;;6.00;4.33;;;;;6.62;86.82;102290.69;5013084;28;45614;-69
2022/03/14 06:51:21;;;;;;;;;6.00;6.00;;;;;6.70;86.35;102294.16;5011608;28;45375;-70
2022/03/14 06:53:47;;;;;;;;;7.75;6.25;;;;;6.75;86.08;102293.28;5011774;28;47117;-69
2022/03/14 06:56:16;;;;;;;;;16.50;9.25;;;;;6.83;86.26;102303.69;5011798;28;45773;-70
2022/03/14 06:58:42;;;;;;;;;8.75;8.75;;;;;6.90;86.17;102313.28;5014861;28;45567;-69
2022/03/14 07:01:07;;;;;;;;;14.25;12.50;;;;;6.97;86.26;102317.59;5012967;28;45357;-69
2022/03/14 07:03:33;;;;;;;;;14.33;9.67;;;;;7.05;85.63;102333.28;5014337;28;53929;-70
2022/03/14 07:05:58;;;;;;;;;8.00;7.00;;;;;7.16;85.53;102328.03;5011349;28;45377;-69
2022/03/14 07:08:24;;;;;;;;;11.25;9.50;;;;;7.26;85.65;102333.22;5011538;28;45493;-69
2022/03/14 07:10:49;;;;;;;;;13.75;9.25;;;;;7.39;85.16;102339.25;5013201;28;45625;-69
2022/03/14 07:13:14;;;;;;;;;10.25;6.50;;;;;7.53;85.00;102331.34;5014668;28;47175;-69
2022/03/14 07:15:40;;;;;;;;;1.75;1.75;;;;;7.69;84.65;102337.38;5012314;28;45471;-70
2022/03/14 07:18:05;;;;;;;;;10.50;10.00;;;;;7.83;84.75;102340.78;5011619;28;45537;-70
2022/03/14 07:20:30;;;;;;;;;7.75;6.75;;;;;7.98;84.38;102347.66;5014493;28;45396;-69
2022/03/14 07:22:58;;;;;;;;;6.75;3.00;;;;;8.27;84.19;102357.94;5012040;28;46717;-69
2022/03/14 07:25:27;;;;;;;;;12.00;6.00;;;;;8.70;83.97;102360.25;5015794;28;45952;-69
2022/03/14 07:27:54;;;;;;;;;10.75;9.00;;;;;9.09;82.69;102357.22;5011792;28;45322;-70
2022/03/14 07:30:20;;;;;;;;;7.25;6.00;;;;;9.59;82.37;102358.38;5011808;28;45479;-69
2022/03/14 07:32:46;;;;;;;;;11.50;8.00;;;;;10.24;80.92;102358.38;5014080;28;46163;-68
2022/03/14 07:35:12;;;;;;;;;12.25;7.25;;;;;10.58;79.33;102353.41;5010976;28;45317;-69
2022/03/14 07:37:37;;;;;;;;;7.00;5.00;;;;;11.05;78.61;102349.06;5014509;28;45341;-68
2022/03/14 07:40:03;;;;;;;;;7.00;3.00;;;;;11.57;77.04;102360.31;5013057;28;45434;-68
2022/03/14 07:42:29;;;;;;;;;11.25;5.75;;;;;12.25;76.93;102369.31;5015073;28;46209;-69
2022/03/14 07:44:54;;;;;;;;;7.00;6.50;;;;;13.14;74.86;102371.44;5014379;28;45471;-69
2022/03/14 07:47:19;;;;;;;;;5.00;5.00;;;;;13.70;73.24;102384.84;5010444;28;45504;-69
2022/03/14 07:49:45;;;;;;;;;6.00;6.00;;;;;13.80;71.69;102381.03;5012184;28;45469;-69
2022/03/14 07:52:11;;;;;;;;;8.50;7.25;;;;;13.69;71.31;102394.56;5012673;28;45454;-69
2022/03/14 07:54:36;;;;;;;;;7.00;7.00;;;;;13.44;69.59;102409.38;5012695;28;45381;-70
2022/03/14 07:57:02;;;;;;;;;7.00;3.25;;;;;12.94;69.39;102411.56;5008472;28;45638;-69
2022/03/14 07:59:27;;;;;;;;;3.50;3.50;;;;;12.69;69.58;102413.97;5010901;28;45532;-69
2022/03/14 08:01:52;;;;;;;;;7.25;7.25;;;;;12.49;70.20;102417.09;5014698;28;49931;-69
2022/03/14 08:04:18;;;;;;;;;7.75;5.25;;;;;12.69;69.94;102424.53;5013938;28;45348;-69
2022/03/14 08:06:45;;;;;;;;;7.50;5.50;;;;;13.26;70.50;102422.19;5016131;28;45283;-69
2022/03/14 08:09:11;;;;;;;;;6.00;5.00;;;;;14.44;69.95;102420.44;5014705;28;45434;-70
2022/03/14 08:11:38;;;;;;;;;8.50;6.50;;;;;15.39;68.24;102423.38;5014843;28;46111;-70
2022/03/14 08:14:04;;;;;;;;;9.50;6.00;;;;;16.75;66.57;102418.09;5010272;28;45790;-70
2022/03/14 08:16:29;;;;;;;;;9.00;5.00;;;;;17.90;64.17;102411.22;5015471;28;45349;-70
2022/03/14 08:18:54;;;;;;;;;11.25;5.50;;;;;19.08;62.02;102405.41;5013874;28;45407;-70
2022/03/14 08:21:20;;;;;;;;;8.00;6.00;;;;;21.13;59.84;102406.34;5014256;28;49160;-70
2022/03/14 08:23:46;;;;;;;;;7.00;6.25;;;;;23.22;58.79;102402.53;5008760;28;45411;-70
2022/03/14 08:26:11;;;;;;;;;7.50;5.00;;;;;25.27;54.41;102407.00;5005798;28;45935;-70
2022/03/14 08:28:38;;;;;;;;;8.50;5.75;;;;;26.90;50.95;102410.69;5013614;28;45590;-70
2022/03/14 08:31:04;;;;;;;;;9.50;6.50;;;;;28.33;48.24;102419.56;5011292;28;46139;-71
2022/03/14 08:33:29;;;;;;;;;7.00;5.25;;;;;29.35;46.66;102421.72;5013979;28;45463;-70
2022/03/14 08:35:59;;;;;;;;;10.75;8.50;;;;;30.49;44.07;102433.06;5014653;28;45517;-71
2022/03/14 08:38:25;;;;;;;;;8.50;5.75;;;;;31.44;41.36;102430.44;4997033;28;45487;-71
2022/03/14 08:40:51;;;;;;;;;8.50;5.25;;;;;32.12;40.71;102434.97;5012356;28;47088;-71
2022/03/14 08:43:16;;;;;;;;;7.00;4.50;;;;;32.76;39.17;102443.41;5014227;28;45334;-71
2022/03/14 08:45:43;;;;;;;;;5.00;5.00;;;;;33.64;39.94;102443.44;5011540;28;45511;-72
2022/03/14 08:48:10;;;;;;;;;6.75;5.50;;;;;34.35;36.39;102446.13;5014907;28;45604;-71
2022/03/14 08:50:38;;;;;;;;;7.50;5.75;;;;;35.22;35.00;102452.06;5012833;28;47179;-69
2022/03/14 08:53:03;;;;;;;;;8.00;6.00;;;;;35.56;35.96;102451.53;5015717;28;45796;-71
2022/03/14 08:55:28;;;;;;;;;9.75;6.75;;;;;35.89;32.30;102453.84;5012803;28;46149;-70
2022/03/14 08:57:54;;;;;;;;;8.75;8.00;;;;;36.26;32.33;102461.03;5010916;28;45360;-70
2022/03/14 09:00:21;;;;;;;;;7.50;5.00;;;;;36.99;32.08;102459.84;5012572;28;47057;-71
2022/03/14 09:02:46;;;;;;;;;9.00;6.50;;;;;37.54;31.11;102466.34;5012736;28;45397;-70
2022/03/14 09:05:12;;;;;;;;;5.00;5.00;;;;;38.08;29.85;102464.69;5014497;28;45523;-68
2022/03/14 09:07:37;;;;;;;;;6.25;5.00;;;;;38.64;29.18;102470.72;5014052;28;45538;-70
2022/03/14 09:10:06;;;;;;;;;8.00;7.50;;;;;38.95;27.87;102480.25;5013684;28;46079;-70
2022/03/14 09:12:35;;;;;;;;;8.50;6.50;;;;;39.36;27.76;102474.53;5016142;28;45578;-70
2022/03/14 09:15:05;;;;;;;;;12.00;7.25;;;;;39.85;26.39;102480.50;5014340;28;45464;-70
2022/03/14 09:17:32;;;;;;;;;6.00;4.00;;;;;40.03;25.37;102472.34;5006948;28;45547;-70
2022/03/14 09:19:58;;;;;;;;;9.50;7.50;;;;;40.44;26.31;102482.06;4990551;28;47053;-70
2022/03/14 09:22:23;;;;;;;;;4.75;4.00;;;;;40.80;25.46;102480.56;5013781;28;45424;-70
2022/03/14 09:24:48;;;;;;;;;7.50;7.00;;;;;41.13;24.92;102488.53;5014739;28;45853;-70
2022/03/14 09:27:14;;;;;;;;;5.00;4.50;;;;;41.49;24.50;102489.66;5013915;28;45400;-71
2022/03/14 09:29:39;;;;;;;;;6.25;6.25;;;;;41.77;23.87;102478.09;5013460;28;45388;-70
2022/03/14 09:32:05;;;;;;;;;5.75;4.75;;;;;41.61;23.34;102485.03;5013959;28;45356;-70
2022/03/14 09:34:31;;;;;;;;;8.00;5.25;;;;;41.67;22.83;102492.44;5011517;28;45460;-70
2022/03/14 09:36:57;;;;;;;;;5.00;4.75;;;;;42.12;22.63;102492.03;5023799;28;45469;-70
2022/03/14 09:39:23;;;;;;;;;5.50;3.25;;;;;42.56;22.95;102488.00;5003460;28;46041;-70
2022/03/14 09:41:50;;;;;;;;;6.00;4.25;;;;;42.88;21.96;102496.84;5009150;28;45767;-70
2022/03/14 09:44:19;;;;;;;;;8.50;4.00;;;;;43.21;22.01;102490.72;5013094;28;45462;-70
2022/03/14 09:46:47;;;;;;;;;6.25;5.25;;;;;43.42;22.06;102497.56;5011527;28;45349;-70
2022/03/14 09:49:15;;;;;;;;;5.50;5.00;;;;;43.32;21.08;102496.47;5028725;28;46546;-70
2022/03/14 09:51:42;;;;;;;;;6.25;4.50;;;;;43.05;21.23;102499.75;5014333;28;45799;-70
2022/03/14 09:54:10;;;;;;;;;7.00;4.25;;;;;42.20;20.97;102503.66;5013569;28;45366;-70
2022/03/14 09:56:43;;;;;;;;;5.50;2.50;;;;;41.55;21.17;102505.28;5013371;28;45377;-70
2022/03/14 09:59:12;;;;;;;;;5.50;4.25;;;;;40.71;20.93;102502.03;5005893;28;46567;-70
2022/03/14 10:01:37;;;;;;;;;5.00;3.50;;;;;39.55;21.99;102497.50;5023181;28;45436;-70
2022/03/14 10:04:03;;;;;;;;;7.25;5.25;;;;;38.79;22.39;102497.16;5013787;28;45385;-70
2022/03/14 10:06:29;;;;;;;;;6.75;2.75;;;;;38.22;23.13;102499.38;5014106;28;45591;-70
2022/03/14 10:08:54;;;;;;;;;4.00;3.00;;;;;37.70;23.60;102498.09;5013321;28;47059;-70
2022/03/14 10:11:20;;;;;;;;;5.00;4.50;;;;;37.03;23.89;102502.25;5014170;28;45318;-70
2022/03/14 10:13:45;;;;;;;;;4.25;3.00;;;;;36.38;23.97;102508.75;5014021;28;45294;-70
2022/03/14 10:16:10;;;;;;;;;7.75;6.75;;;;;35.83;24.69;102512.06;5015362;28;45262;-71
2022/03/14 10:18:50;;;;;;;;;6.25;4.25;;;;;35.38;24.54;102502.97;5015104;28;46134;-70
2022/03/14 10:21:38;;;;;;;;;4.50;3.25;;;;;34.89;25.69;102512.47;5017399;28;45432;-70
2022/03/14 10:24:08;;;;;;;;;9.50;4.75;;;;;34.37;25.31;102499.50;5015494;28;45765;-70
2022/03/14 10:26:35;;;;;;;;;7.25;5.75;;;;;33.98;25.57;102502.28;5016741;28;45249;-71
2022/03/14 10:29:03;;;;;;;;;5.25;4.00;;;;;33.61;25.23;102508.34;5017872;28;46653;-70
2022/03/14 10:31:54;;;;;;;;;6.75;5.25;;;;;33.47;26.15;102505.34;5018199;28;45571;-70
2022/03/14 10:34:20;;;;;;;;;5.00;3.00;;;;;33.19;26.92;102510.28;5018341;28;45348;-70
2022/03/14 10:36:48;;;;;;;;;6.00;4.00;;;;;32.88;25.88;102506.53;5017888;28;45308;-70
2022/03/14 10:39:16;;;;;;;;;4.00;4.00;;;;;32.51;26.36;102513.31;5000040;28;47209;-70
2022/03/14 10:41:45;;;;;;;;;4.50;3.50;;;;;31.57;26.61;102514.25;5017579;28;45599;-71
2022/03/14 10:44:22;;;;;;;;;4.75;4.00;;;;;30.57;27.79;102517.28;4998659;28;46196;-70
2022/03/14 10:46:48;;;;;;;;;7.00;6.00;;;;;29.70;29.16;102510.44;5005046;28;45573;-70
2022/03/14 10:49:15;;;;;;;;;10.00;4.25;;;;;28.93;28.73;102507.84;5015467;28;46813;-71
2022/03/14 10:51:58;;;;;;;;;8.50;6.00;;;;;28.42;29.73;102512.50;5016901;28;45691;-71
2022/03/14 10:54:23;;;;;;;;;4.75;4.75;;;;;28.11;30.53;102506.28;5016194;28;45355;-70
2022/03/14 10:57:04;;;;;;;;;5.00;5.00;;;;;27.83;30.87;102506.06;5017423;28;45496;-70
2022/03/14 10:59:50;;;;;;;;;5.50;4.25;;;;;27.54;31.01;102502.31;5017205;28;46080;-71
2022/03/14 11:02:26;;;;;;;;;5.50;3.00;;;;;27.24;31.14;102503.97;5017508;28;45678;-71
2022/03/14 11:04:56;;;;;;;;;4.75;3.25;;;;;27.03;30.98;102501.25;5016937;28;45490;-71
2022/03/14 11:07:31;;;;;;;;;5.00;5.00;;;;;26.70;32.16;102504.94;5017852;28;45534;-70
2022/03/14 11:09:58;;;;;;;;;3.00;3.00;;;;;26.45;32.35;102489.94;5014821;28;47251;-70
2022/03/14 11:12:26;;;;;;;;;6.75;5.50;;;;;26.37;32.87;102487.03;5016417;28;45654;-70
2022/03/14 11:14:52;;;;;;;;;7.25;4.75;;;;;26.32;32.45;102499.16;5016554;28;45543;-68
2022/03/14 11:17:25;;;;;;;;;6.50;5.00;;;;;25.80;32.59;102504.22;5017068;28;45468;-70
2022/03/14 11:19:52;;;;;;;;;4.50;4.25;;;;;25.45;32.54;102521.28;5016500;28;47171;-67
2022/03/14 11:22:18;;;;;;;;;4.50;4.00;;;;;25.18;33.11;102516.22;5017202;28;45737;-68
2022/03/14 11:24:47;;;;;;;;;6.75;3.50;;;;;24.94;32.80;102507.28;5015855;28;45290;-72
2022/03/14 11:27:24;;;;;;;;;5.00;2.50;;;;;24.66;33.66;102498.63;5012701;28;45467;-70